Time;durP1;ratioP1;P1;durP2;ratioP2;P2;SDS_P1;SDS_P2;PMS_P1;PMS_P2;Temp;Humidity;BMP_temperature;BMP_pressure;BME280_temperature;BME280_humidity;BME280_pressure;Samples;Min_cycle;Max_cycle;Signal;HPM_P1;HPM_P2
2022/04/17 00:01:42;;;;;;;11.35;7.60;;;;;;;6.43;56.43;102895.19;5069225;28;20025;-66
2022/04/17 00:04:10;;;;;;;11.43;7.78;;;;;;;6.35;57.15;102892.66;5070183;28;20025;-67
2022/04/17 00:06:36;;;;;;;13.70;7.20;;;;;;;6.24;58.42;102894.69;5072965;28;20107;-69
2022/04/17 00:09:01;;;;;;;14.43;8.05;;;;;;;6.14;57.42;102892.19;5071049;28;20032;-67
2022/04/17 00:11:27;;;;;;;11.10;7.63;;;;;;;6.11;58.88;102897.69;5069206;28;20438;-67
2022/04/17 00:13:54;;;;;;;11.38;7.63;;;;;;;6.09;58.36;102896.81;5069308;28;20020;-68
2022/04/17 00:16:20;;;;;;;11.32;7.47;;;;;;;6.03;58.25;102896.94;5072995;28;20151;-74
2022/04/17 00:18:45;;;;;;;12.30;8.35;;;;;;;5.95;58.27;102893.50;5069652;28;20404;-74
2022/04/17 00:21:10;;;;;;;10.18;7.55;;;;;;;5.92;57.82;102895.34;5070905;28;20037;-67
2022/04/17 00:23:36;;;;;;;11.00;7.90;;;;;;;5.88;58.34;102895.41;5065107;28;20037;-74
2022/04/17 00:26:02;;;;;;;13.00;7.57;;;;;;;5.82;57.95;102891.91;5073219;28;20039;-66
2022/04/17 00:28:28;;;;;;;12.20;7.30;;;;;;;5.82;57.60;102900.91;5061471;28;20028;-74
2022/04/17 00:30:54;;;;;;;12.55;7.00;;;;;;;5.83;57.30;102896.44;5063303;28;20437;-66
2022/04/17 00:33:20;;;;;;;11.43;7.93;;;;;;;5.82;56.87;102897.31;5067128;28;20043;-71
2022/04/17 00:35:45;;;;;;;13.00;8.07;;;;;;;5.79;57.12;102900.09;5067767;28;20028;-74
2022/04/17 00:38:11;;;;;;;12.32;7.22;;;;;;;5.75;55.89;102895.69;5069079;28;20020;-74
2022/04/17 00:40:36;;;;;;;17.58;7.32;;;;;;;5.75;56.73;102898.38;5069335;28;20032;-66
2022/04/17 00:43:02;;;;;;;11.23;6.80;;;;;;;5.70;55.99;102895.75;5064778;28;20031;-74
2022/04/17 00:45:27;;;;;;;14.98;7.00;;;;;;;5.68;56.02;102891.31;5072342;28;20166;-67
2022/04/17 00:47:53;;;;;;;11.20;6.90;;;;;;;5.63;56.07;102897.66;5071481;28;20155;-66
2022/04/17 00:50:19;;;;;;;10.63;6.85;;;;;;;5.58;55.90;102891.47;5061049;28;20041;-66
2022/04/17 00:52:46;;;;;;;9.48;7.10;;;;;;;5.53;59.27;102889.78;5068295;28;20078;-74
2022/04/17 00:55:15;;;;;;;10.40;6.68;;;;;;;5.47;60.43;102881.81;5069975;28;20094;-67
2022/04/17 00:57:41;;;;;;;11.07;6.07;;;;;;;5.38;58.88;102886.44;5067772;28;20139;-66
2022/04/17 01:00:07;;;;;;;9.95;6.90;;;;;;;5.29;60.56;102881.22;5072566;28;20043;-73
2022/04/17 01:02:32;;;;;;;12.18;7.15;;;;;;;5.25;59.13;102892.97;5067243;28;20028;-67
2022/04/17 01:04:58;;;;;;;9.02;6.22;;;;;;;5.22;59.00;102894.81;5052668;28;20119;-68
2022/04/17 01:07:23;;;;;;;10.75;7.22;;;;;;;5.19;59.84;102897.59;5066718;28;20415;-67
2022/04/17 01:09:50;;;;;;;11.32;6.57;;;;;;;5.10;59.96;102880.66;5069522;28;20518;-75
2022/04/17 01:12:17;;;;;;;10.82;6.80;;;;;;;5.06;60.07;102884.31;5062177;28;20105;-74
2022/04/17 01:14:43;;;;;;;10.88;6.55;;;;;;;4.99;60.44;102889.81;5067093;28;20161;-74
2022/04/17 01:17:10;;;;;;;10.73;6.97;;;;;;;4.95;60.44;102889.00;5065130;28;20492;-74
2022/04/17 01:19:37;;;;;;;12.40;6.95;;;;;;;4.88;59.87;102881.03;5074233;28;20091;-67
2022/04/17 01:22:06;;;;;;;12.73;7.20;;;;;;;4.76;59.46;102879.44;5072048;28;20039;-73
2022/04/17 01:27:17;;;;;;;9.20;6.55;;;;;;;4.74;60.76;102892.03;5064362;28;20043;-74
2022/04/17 01:29:44;;;;;;;10.75;6.47;;;;;;;4.70;61.24;102893.88;5071670;28;20103;-74
2022/04/17 01:32:10;;;;;;;10.05;6.43;;;;;;;4.66;59.59;102892.13;5059096;28;20094;-66
2022/04/17 01:34:37;;;;;;;9.90;6.53;;;;;;;4.61;61.03;102891.31;5071825;28;20510;-66
2022/04/17 01:37:03;;;;;;;12.60;6.85;;;;;;;4.54;61.24;102892.31;5057236;28;20037;-75
2022/04/17 01:39:30;;;;;;;10.73;6.78;;;;;;;4.49;63.49;102894.19;5067044;28;20508;-67
2022/04/17 01:41:57;;;;;;;11.18;6.80;;;;;;;4.45;63.54;102890.66;5064154;28;20419;-68
2022/04/17 01:44:24;;;;;;;9.77;6.35;;;;;;;4.40;63.46;102886.25;5070812;28;20099;-67
2022/04/17 01:46:50;;;;;;;13.68;7.10;;;;;;;4.41;63.94;102901.50;5071472;28;20125;-74
2022/04/17 01:49:16;;;;;;;8.40;6.53;;;;;;;4.39;64.88;102898.81;5071186;28;20052;-74
2022/04/17 01:51:44;;;;;;;8.90;6.30;;;;;;;4.35;63.75;102891.69;5068212;28;20024;-72
2022/04/17 01:54:12;;;;;;;10.63;6.60;;;;;;;4.34;62.38;102893.50;5067771;28;20396;-66
2022/04/17 01:56:39;;;;;;;13.00;7.30;;;;;;;4.33;62.94;102896.19;5065209;28;20036;-66
2022/04/17 01:59:06;;;;;;;9.77;6.68;;;;;;;4.29;63.27;102889.06;5066289;28;20047;-71
2022/04/17 02:01:36;;;;;;;13.68;6.97;;;;;;;4.22;63.20;102882.00;5070134;28;20040;-68
2022/04/17 02:04:03;;;;;;;10.57;7.15;;;;;;;4.15;64.15;102878.50;5070798;28;20029;-67
2022/04/17 02:06:28;;;;;;;10.73;6.72;;;;;;;4.03;64.31;102874.13;5069544;28;20032;-74
2022/04/17 02:08:54;;;;;;;8.43;6.57;;;;;;;3.97;64.19;102866.16;5068659;28;20067;-74
2022/04/17 02:11:21;;;;;;;10.30;6.43;;;;;;;3.96;65.32;102872.41;5069595;28;20460;-67
2022/04/17 02:13:49;;;;;;;10.05;7.00;;;;;;;3.90;66.40;102879.69;5067305;28;20067;-66
2022/04/17 02:16:15;;;;;;;9.48;6.70;;;;;;;3.82;64.85;102878.00;5069730;28;20077;-67
2022/04/17 02:18:40;;;;;;;10.57;6.47;;;;;;;3.80;65.38;102871.72;5068860;28;20060;-68
2022/04/17 02:21:06;;;;;;;13.40;7.25;;;;;;;3.80;66.34;102873.53;5069235;28;20071;-65
2022/04/17 02:23:32;;;;;;;8.70;7.07;;;;;;;3.74;66.06;102869.13;5067419;28;20094;-75
2022/04/17 02:25:57;;;;;;;8.63;6.20;;;;;;;3.70;67.32;102869.16;5061746;28;20074;-75
2022/04/17 02:28:22;;;;;;;7.78;5.78;;;;;;;3.63;68.23;102868.31;5056110;28;20430;-73
2022/04/17 02:30:48;;;;;;;11.32;7.35;;;;;;;3.56;69.13;102867.50;5065211;28;20372;-74
2022/04/17 02:33:13;;;;;;;8.38;6.45;;;;;;;3.50;68.36;102867.59;5065181;28;20059;-74
2022/04/17 02:35:38;;;;;;;8.48;6.28;;;;;;;3.48;67.47;102866.69;5067556;28;20032;-67
2022/04/17 02:38:04;;;;;;;12.52;7.38;;;;;;;3.48;67.73;102871.19;5068256;28;20043;-73
2022/04/17 02:40:31;;;;;;;15.07;7.18;;;;;;;3.50;66.67;102872.09;5065173;28;20043;-74
2022/04/17 02:42:56;;;;;;;10.60;6.50;;;;;;;3.48;67.78;102872.06;5063187;28;20035;-73
2022/04/17 02:45:21;;;;;;;11.85;7.38;;;;;;;3.46;67.31;102860.44;5070093;28;20109;-75
2022/04/17 02:47:48;;;;;;;10.25;6.82;;;;;;;3.43;66.92;102865.84;5067942;28;20028;-73
2022/04/17 02:50:16;;;;;;;12.18;6.82;;;;;;;3.42;66.91;102866.78;5068754;28;20040;-66
2022/04/17 02:52:42;;;;;;;11.40;7.43;;;;;;;3.41;67.13;102859.63;5068947;28;20077;-67
2022/04/17 02:55:08;;;;;;;12.18;7.47;;;;;;;3.39;67.32;102866.78;5066797;28;20438;-73
2022/04/17 02:57:34;;;;;;;13.20;7.40;;;;;;;3.32;68.53;102860.59;5058283;28;20029;-74
2022/04/17 03:00:00;;;;;;;14.40;7.47;;;;;;;3.31;67.82;102860.59;5061591;28;20081;-67
2022/04/17 03:07:54;;;;;;;11.98;7.15;;;;;;;3.28;67.02;102858.84;5061696;28;20090;-66
2022/04/17 03:10:20;;;;;;;10.40;7.28;;;;;;;3.26;70.85;102854.38;5064096;28;20518;-67
2022/04/17 03:12:45;;;;;;;11.85;6.90;;;;;;;3.16;72.59;102858.06;5061495;28;20017;-66
2022/04/17 03:15:11;;;;;;;10.82;7.20;;;;;;;2.99;70.47;102856.41;5069038;28;20044;-75
2022/04/17 03:17:37;;;;;;;10.05;6.97;;;;;;;2.90;70.96;102852.94;5051593;28;20028;-74
2022/04/17 03:20:03;;;;;;;10.93;7.53;;;;;;;2.86;70.70;102845.78;5051018;28;20033;-66
2022/04/17 03:22:29;;;;;;;13.30;6.75;;;;;;;2.85;70.17;102846.69;5049882;28;20120;-66
2022/04/17 03:24:54;;;;;;;12.70;7.65;;;;;;;2.83;70.44;102843.09;5061760;28;20391;-75
2022/04/17 03:27:20;;;;;;;10.60;6.90;;;;;;;2.77;70.69;102826.13;5053012;28;20033;-75
2022/04/17 03:29:45;;;;;;;12.38;7.13;;;;;;;2.77;71.27;102836.88;5050755;28;20070;-67
2022/04/17 03:32:10;;;;;;;9.80;6.70;;;;;;;2.74;71.25;102838.69;5051098;28;20032;-73
2022/04/17 03:34:36;;;;;;;10.27;6.78;;;;;;;2.72;70.86;102840.50;5047560;28;20045;-74
2022/04/17 03:37:03;;;;;;;9.48;6.57;;;;;;;2.67;71.31;102837.88;5052615;28;20315;-67
2022/04/17 03:39:28;;;;;;;9.38;6.10;;;;;;;2.68;70.73;102839.63;5055913;28;20046;-68
2022/04/17 03:41:53;;;;;;;10.15;7.30;;;;;;;2.66;70.79;102830.72;5051418;28;20214;-68
2022/04/17 03:44:19;;;;;;;8.85;6.82;;;;;;;2.63;70.73;102829.84;5049496;28;20036;-74
2022/04/17 03:46:45;;;;;;;10.90;6.78;;;;;;;2.65;71.43;102836.06;5047600;28;20083;-67
2022/04/17 03:49:11;;;;;;;9.70;7.18;;;;;;;2.64;71.05;102828.94;5057269;28;20040;-66
2022/04/17 03:51:37;;;;;;;11.55;6.85;;;;;;;2.64;70.35;102837.00;5054729;28;20024;-67
2022/04/17 03:54:02;;;;;;;9.18;6.70;;;;;;;2.62;69.85;102833.44;5067036;28;20057;-73
2022/04/17 03:56:28;;;;;;;9.18;6.20;;;;;;;2.63;69.79;102841.47;5064923;28;20122;-75
2022/04/17 03:58:54;;;;;;;11.07;6.95;;;;;;;2.62;70.56;102831.63;5054772;28;20030;-75
2022/04/17 04:01:19;;;;;;;11.25;7.05;;;;;;;2.59;69.80;102837.03;5058267;28;20036;-67
2022/04/17 04:03:45;;;;;;;8.52;6.43;;;;;;;2.54;72.24;102828.09;5081083;28;20020;-66
2022/04/17 04:06:11;;;;;;;9.45;6.68;;;;;;;2.48;70.91;102822.78;5059877;28;20045;-67
2022/04/17 04:08:36;;;;;;;11.00;7.03;;;;;;;2.50;70.63;102827.22;5062867;28;20508;-66
2022/04/17 04:11:02;;;;;;;14.90;6.32;;;;;;;2.46;70.59;102830.84;5066671;28;20468;-74
2022/04/17 04:13:27;;;;;;;8.63;6.50;;;;;;;2.44;70.80;102829.97;5056455;28;20043;-68
2022/04/17 04:15:55;;;;;;;9.30;7.05;;;;;;;2.41;71.08;102823.72;5067277;28;20032;-67
2022/04/17 04:18:21;;;;;;;8.70;6.38;;;;;;;2.35;71.78;102819.28;5062286;28;20468;-74
2022/04/17 04:20:46;;;;;;;8.93;6.28;;;;;;;2.28;72.11;102804.09;5061050;28;20039;-67
2022/04/17 04:23:11;;;;;;;10.55;6.68;;;;;;;2.26;72.33;102803.22;5069330;28;20072;-67
2022/04/17 04:25:36;;;;;;;8.88;6.60;;;;;;;2.17;72.81;102796.13;5050292;28;20040;-75
2022/04/17 04:30:46;;;;;;;10.80;6.60;;;;;;;2.11;72.18;102801.53;5062752;28;20373;-67
2022/04/17 04:33:12;;;;;;;10.95;6.55;;;;;;;2.14;71.56;102812.22;5066364;28;20078;-67
2022/04/17 04:35:37;;;;;;;8.75;5.55;;;;;;;2.15;70.57;102806.00;5068973;28;20036;-66
2022/04/17 04:38:03;;;;;;;9.35;6.18;;;;;;;2.20;70.39;102804.16;5067333;28;20032;-66
2022/04/17 04:40:29;;;;;;;7.57;5.50;;;;;;;2.22;70.42;102804.16;5065939;28;20491;-66
2022/04/17 04:42:59;;;;;;;9.00;6.18;;;;;;;2.26;70.30;102811.28;5074961;28;20436;-74
2022/04/17 04:48:09;;;;;;;10.02;6.18;;;;;;;2.24;71.76;102799.69;5055330;28;20029;-66
2022/04/17 04:50:34;;;;;;;9.10;6.43;;;;;;;2.20;70.83;102793.44;5072821;28;20026;-71
2022/04/17 04:53:00;;;;;;;9.45;6.15;;;;;;;2.19;71.27;102793.41;5054707;28;20032;-73
2022/04/17 04:55:25;;;;;;;8.35;6.10;;;;;;;2.24;71.28;102797.88;5064462;28;20114;-68
2022/04/17 04:57:50;;;;;;;9.20;5.90;;;;;;;2.35;71.01;102796.91;5065631;28;20243;-66
2022/04/17 05:00:16;;;;;;;10.85;6.30;;;;;;;2.49;69.54;102795.91;5074248;28;20039;-68
2022/04/17 05:02:41;;;;;;;8.25;5.32;;;;;;;2.63;70.24;102797.59;5072286;28;20036;-75
2022/04/17 05:05:08;;;;;;;15.82;6.15;;;;;;;2.72;71.09;102795.72;5070098;28;20038;-73
2022/04/17 05:07:33;;;;;;;7.07;5.13;;;;;;;2.68;69.97;102793.97;5071334;28;20514;-66
2022/04/17 05:10:00;;;;;;;10.85;5.97;;;;;;;2.69;68.85;102802.91;5061902;28;20028;-69
2022/04/17 05:12:27;;;;;;;12.18;6.10;;;;;;;2.71;68.97;102804.69;5061815;28;20048;-67
2022/04/17 05:14:53;;;;;;;9.57;5.75;;;;;;;2.75;69.13;102806.47;5068688;28;20034;-73
2022/04/17 05:17:18;;;;;;;12.48;6.47;;;;;;;2.77;68.17;102811.81;5070204;28;20040;-75
2022/04/17 05:19:44;;;;;;;9.82;5.78;;;;;;;2.80;67.65;102811.78;5071546;28;20032;-75
2022/04/17 05:22:16;;;;;;;9.70;6.00;;;;;;;2.77;67.49;102810.00;5066273;28;20028;-73
2022/04/17 05:24:45;;;;;;;10.15;5.93;;;;;;;2.78;68.64;102811.78;5068631;28;20105;-73
2022/04/17 05:27:12;;;;;;;10.63;5.88;;;;;;;2.83;70.12;102819.81;5061116;28;20025;-66
2022/04/17 05:29:38;;;;;;;9.30;5.40;;;;;;;2.85;69.03;102806.38;5063991;28;20075;-73
2022/04/17 05:32:03;;;;;;;10.55;5.60;;;;;;;2.90;68.91;102810.81;5058239;28;20119;-73
2022/04/17 05:34:29;;;;;;;9.48;5.97;;;;;;;2.90;69.32;102808.13;5071648;28;20024;-73
2022/04/17 05:36:54;;;;;;;8.63;5.63;;;;;;;2.98;68.70;102814.28;5061185;28;20149;-68
2022/04/17 05:39:20;;;;;;;8.77;5.90;;;;;;;3.07;69.18;102811.50;5063165;28;20024;-68
2022/04/17 05:41:46;;;;;;;10.00;6.65;;;;;;;3.20;68.33;102808.72;5049544;28;20061;-68
2022/04/17 05:44:12;;;;;;;10.35;5.65;;;;;;;3.22;67.69;102806.91;5063903;28;20078;-73
2022/04/17 05:46:39;;;;;;;9.85;6.45;;;;;;;3.32;67.53;102812.19;5071373;28;20414;-66
2022/04/17 05:49:06;;;;;;;11.27;6.60;;;;;;;3.43;70.76;102808.47;5067631;28;20159;-66
2022/04/17 05:51:33;;;;;;;10.63;6.45;;;;;;;3.47;68.76;102810.22;5069951;28;20032;-66
2022/04/17 05:53:59;;;;;;;9.27;5.60;;;;;;;3.51;68.61;102807.47;5068634;28;20093;-72
2022/04/17 05:56:25;;;;;;;9.38;5.78;;;;;;;3.55;68.62;102798.47;5068713;28;20091;-71
2022/04/17 05:58:51;;;;;;;9.68;6.18;;;;;;;3.66;68.16;102803.72;5057817;28;20128;-69
2022/04/17 06:01:16;;;;;;;8.65;6.18;;;;;;;3.76;67.39;102804.47;5071018;28;20124;-73
2022/04/17 06:03:41;;;;;;;6.97;5.55;;;;;;;3.89;66.43;102807.91;5076972;28;20050;-73
2022/04/17 06:06:07;;;;;;;11.43;6.80;;;;;;;3.98;66.13;102808.69;5070043;28;20043;-67
2022/04/17 06:08:32;;;;;;;10.20;5.70;;;;;;;4.13;66.06;102810.25;5068836;28;20031;-74
2022/04/17 06:10:59;;;;;;;11.57;6.82;;;;;;;4.25;65.31;102802.03;5057071;28;20060;-68
2022/04/17 06:13:24;;;;;;;9.05;5.90;;;;;;;4.38;65.58;102807.22;5053605;28;20070;-75
2022/04/17 06:15:50;;;;;;;10.13;6.30;;;;;;;4.59;64.25;102810.47;5068684;28;20555;-75
2022/04/17 06:18:15;;;;;;;9.80;6.43;;;;;;;4.88;64.49;102803.69;5071007;28;20033;-66
2022/04/17 06:20:41;;;;;;;10.52;6.22;;;;;;;5.07;64.52;102801.56;5066454;28;20032;-72
2022/04/17 06:23:06;;;;;;;11.25;6.38;;;;;;;5.16;63.85;102808.59;5069482;28;20044;-68
2022/04/17 06:25:32;;;;;;;8.30;6.18;;;;;;;5.35;62.63;102796.53;5066773;28;20127;-76
2022/04/17 06:27:57;;;;;;;9.88;5.85;;;;;;;5.32;62.66;102794.81;5054374;28;20032;-72
2022/04/17 06:30:23;;;;;;;10.90;6.55;;;;;;;5.29;63.78;102794.84;5069452;28;20013;-73
2022/04/17 06:32:49;;;;;;;7.18;5.35;;;;;;;5.47;63.43;102799.00;5063418;28;20068;-75
2022/04/17 06:35:15;;;;;;;7.85;5.70;;;;;;;6.82;60.81;102799.59;5059904;28;20028;-72
2022/04/17 06:37:51;;;;;;;7.38;4.97;;;;;;;7.78;57.91;102792.44;5061726;28;20654;-68
2022/04/17 06:40:19;;;;;;;7.53;5.68;;;;;;;7.81;55.83;102800.50;5064905;28;20036;-72
2022/04/17 06:42:46;;;;;;;7.65;4.97;;;;;;;7.89;56.10;102795.75;5044127;28;67370;-72
2022/04/17 06:45:12;;;;;;;9.73;5.75;;;;;;;7.92;56.03;102799.22;5055485;28;20538;-73
2022/04/17 06:47:37;;;;;;;7.80;4.97;;;;;;;7.89;55.10;102798.44;5060374;28;20028;-74
2022/04/17 06:50:04;;;;;;;6.28;4.40;;;;;;;7.87;54.43;102797.59;5063414;28;20111;-67
2022/04/17 06:52:29;;;;;;;11.35;5.18;;;;;;;7.75;55.98;102796.16;5059895;28;20042;-74
2022/04/17 06:54:54;;;;;;;7.07;4.85;;;;;;;7.61;55.66;102791.13;5057635;28;20520;-67
2022/04/17 06:57:27;;;;;;;5.90;4.95;;;;;;;7.53;56.84;102781.44;5057624;28;20365;-68
2022/04/17 06:59:52;;;;;;;9.15;4.68;;;;;;;7.96;56.48;102788.31;5067179;28;20123;-73
2022/04/17 07:02:17;;;;;;;6.57;4.72;;;;;;;8.33;54.83;102791.66;5065171;28;20158;-68
2022/04/17 07:04:42;;;;;;;7.78;4.85;;;;;;;8.58;54.07;102785.44;5066758;28;20074;-66
2022/04/17 07:07:08;;;;;;;8.30;4.65;;;;;;;8.87;51.65;102784.50;5066832;28;20442;-69
2022/04/17 07:09:33;;;;;;;5.78;4.10;;;;;;;8.88;52.89;102784.44;5062796;28;20041;-74
2022/04/17 07:11:58;;;;;;;5.63;3.72;;;;;;;8.69;53.53;102778.75;5057997;28;20506;-68
2022/04/17 07:14:24;;;;;;;8.63;4.32;;;;;;;8.71;53.25;102777.81;5062364;28;20471;-71
2022/04/17 07:16:49;;;;;;;6.95;4.32;;;;;;;8.73;53.00;102779.53;5047855;28;20418;-68
2022/04/17 07:19:16;;;;;;;5.78;3.85;;;;;;;8.61;54.45;102774.50;5051827;28;20131;-74
2022/04/17 07:21:42;;;;;;;6.25;4.35;;;;;;;8.50;52.86;102776.69;5068594;28;20078;-66
2022/04/17 07:24:07;;;;;;;5.72;4.07;;;;;;;8.38;53.40;102783.41;5066291;28;20044;-71
2022/04/17 07:26:32;;;;;;;5.60;4.32;;;;;;;8.28;53.39;102766.50;5065533;28;20041;-72
2022/04/17 07:28:58;;;;;;;5.03;4.07;;;;;;;8.25;54.32;102766.59;5062234;28;20119;-66
2022/04/17 07:31:23;;;;;;;6.95;4.45;;;;;;;8.23;55.68;102765.75;5070034;28;20063;-67
2022/04/17 07:33:48;;;;;;;7.00;4.55;;;;;;;8.26;55.37;102760.25;5067458;28;20033;-66
2022/04/17 07:36:14;;;;;;;6.97;3.55;;;;;;;8.35;53.35;102756.38;5068130;28;20071;-68
2022/04/17 07:38:40;;;;;;;5.40;4.00;;;;;;;8.55;55.23;102755.72;5056283;28;21370;-74
2022/04/17 07:41:05;;;;;;;7.88;4.70;;;;;;;8.83;54.34;102756.56;5055944;28;20032;-71
2022/04/17 07:43:31;;;;;;;6.40;4.07;;;;;;;9.33;53.60;102753.91;5061216;28;20131;-67
2022/04/17 07:45:58;;;;;;;3.95;3.45;;;;;;;9.92;50.25;102744.41;5061771;28;20063;-72
2022/04/17 07:48:24;;;;;;;4.50;3.63;;;;;;;10.17;50.06;102744.31;5067951;28;20040;-66
2022/04/17 07:50:52;;;;;;;8.45;3.38;;;;;;;10.41;49.53;102746.06;5065897;28;20488;-69
2022/04/17 07:53:18;;;;;;;5.40;3.78;;;;;;;10.58;48.48;102749.91;5051741;28;20122;-70
2022/04/17 07:55:43;;;;;;;5.68;3.42;;;;;;;10.70;48.62;102744.84;5050537;28;20032;-72
2022/04/17 07:58:16;;;;;;;5.60;3.38;;;;;;;10.82;47.68;102745.25;5053179;28;20039;-70
2022/04/17 08:00:46;;;;;;;7.03;3.50;;;;;;;11.01;48.68;102735.38;5057848;28;20515;-74
2022/04/17 08:03:34;;;;;;;5.70;3.25;;;;;;;11.36;47.62;102741.06;5064345;28;20048;-73
2022/04/17 08:06:07;;;;;;;4.07;3.35;;;;;;;11.52;45.21;102741.22;5051003;28;20036;-71
2022/04/17 08:08:33;;;;;;;4.60;3.83;;;;;;;11.56;44.32;102746.47;5059870;28;20063;-73
2022/04/17 08:10:59;;;;;;;7.03;4.03;;;;;;;11.87;47.35;102742.34;5052855;28;20035;-67
2022/04/17 08:13:24;;;;;;;5.90;3.10;;;;;;;12.21;44.36;102739.75;5051160;28;20045;-70
2022/04/17 08:15:52;;;;;;;5.80;3.40;;;;;;;12.71;42.17;102730.88;5053179;28;20029;-72
2022/04/17 08:18:18;;;;;;;6.00;3.35;;;;;;;13.20;44.43;102731.06;5056145;28;20048;-71
2022/04/17 08:20:44;;;;;;;5.75;3.20;;;;;;;13.66;43.49;102736.81;5057476;28;20029;-67
2022/04/17 08:23:10;;;;;;;4.47;3.17;;;;;;;13.98;42.06;102731.38;5060881;28;20041;-68
2022/04/17 08:25:36;;;;;;;5.50;3.45;;;;;;;14.13;40.72;102730.53;5054942;28;20089;-69
2022/04/17 08:28:02;;;;;;;5.03;3.20;;;;;;;14.51;42.08;102722.84;5057517;28;20377;-71
2022/04/17 08:30:32;;;;;;;5.00;3.05;;;;;;;14.81;39.24;102727.47;5060774;28;20085;-70
2022/04/17 08:33:02;;;;;;;3.58;2.88;;;;;;;15.16;41.62;102729.94;5058409;28;20128;-67
2022/04/17 08:35:28;;;;;;;5.43;3.60;;;;;;;15.22;40.16;102735.03;5056886;28;20499;-65
2022/04/17 08:37:57;;;;;;;5.95;3.30;;;;;;;15.73;39.43;102730.88;5071061;28;20047;-66
2022/04/17 08:40:24;;;;;;;3.85;3.35;;;;;;;15.53;36.80;102726.63;5052502;28;20029;-70
2022/04/17 08:42:50;;;;;;;3.67;3.30;;;;;;;15.13;38.30;102722.75;5054187;28;20039;-72
2022/04/17 08:45:16;;;;;;;5.47;3.10;;;;;;;15.44;40.05;102719.00;5066488;28;20040;-70
2022/04/17 08:47:42;;;;;;;5.22;3.50;;;;;;;15.60;36.84;102721.63;5058625;28;20400;-70
2022/04/17 08:50:10;;;;;;;4.85;3.30;;;;;;;15.63;36.45;102718.69;5068241;28;20029;-74
2022/04/17 08:52:37;;;;;;;5.10;3.50;;;;;;;15.66;37.81;102717.66;5062820;28;20107;-69
2022/04/17 08:55:03;;;;;;;5.47;3.33;;;;;;;15.74;34.63;102713.44;5068100;28;20040;-73
2022/04/17 08:57:28;;;;;;;4.20;3.03;;;;;;;15.26;34.58;102711.91;5063307;28;20044;-74
2022/04/17 08:59:53;;;;;;;5.85;3.13;;;;;;;15.08;37.07;102711.19;5069459;28;20127;-73
2022/04/17 09:02:19;;;;;;;3.42;2.97;;;;;;;15.26;35.46;102709.19;5065677;28;20395;-70
2022/04/17 09:04:46;;;;;;;3.08;2.70;;;;;;;15.30;35.25;102714.38;5061790;28;20449;-71
2022/04/17 09:07:13;;;;;;;4.15;3.22;;;;;;;15.59;37.21;102708.03;5061548;28;20036;-72
2022/04/17 09:09:59;;;;;;;4.30;3.17;;;;;;;15.78;37.39;102709.50;5057888;28;20049;-71
2022/04/17 09:12:25;;;;;;;6.45;3.40;;;;;;;16.13;36.89;102709.06;5050789;28;20064;-72
2022/04/17 09:14:53;;;;;;;4.47;3.20;;;;;;;16.42;36.10;102704.38;5070534;28;20044;-71
2022/04/17 09:17:18;;;;;;;3.88;3.20;;;;;;;16.38;33.54;102699.19;5070263;28;20036;-67
2022/04/17 09:19:44;;;;;;;3.67;3.10;;;;;;;16.65;35.40;102704.69;5064503;28;20044;-69
2022/04/17 09:22:10;;;;;;;6.88;3.03;;;;;;;16.89;34.91;102692.03;5067238;28;20024;-70
2022/04/17 09:24:36;;;;;;;4.13;2.90;;;;;;;17.32;33.21;102691.75;5062211;28;20076;-70
2022/04/17 09:27:03;;;;;;;4.05;3.20;;;;;;;17.30;35.40;102691.84;5063246;28;20103;-73
2022/04/17 09:29:35;;;;;;;3.10;2.80;;;;;;;17.04;35.32;102685.44;5063972;28;20710;-65
2022/04/17 09:32:04;;;;;;;4.53;3.13;;;;;;;16.81;34.62;102686.19;5070695;28;20024;-74
2022/04/17 09:34:44;;;;;;;5.18;3.15;;;;;;;17.01;34.15;102682.91;5066951;28;20119;-70
2022/04/17 09:37:18;;;;;;;6.30;3.58;;;;;;;16.91;34.40;102681.78;5069631;28;20028;-74
2022/04/17 09:39:45;;;;;;;7.07;3.67;;;;;;;16.89;34.86;102675.53;5059983;28;20063;-73
2022/04/17 09:42:11;;;;;;;3.85;3.33;;;;;;;17.33;35.26;102672.34;5067827;28;20093;-67
2022/04/17 09:44:47;;;;;;;4.40;3.08;;;;;;;17.51;33.62;102672.03;5059671;28;20547;-67
2022/04/17 09:47:17;;;;;;;4.82;3.42;;;;;;;17.46;34.47;102658.59;5071544;28;20089;-65
2022/04/17 09:49:56;;;;;;;4.57;3.53;;;;;;;17.38;33.45;102666.53;5061448;28;20031;-65
2022/04/17 09:52:43;;;;;;;4.93;3.17;;;;;;;17.18;33.99;102667.97;5064017;28;20040;-66
2022/04/17 09:55:09;;;;;;;3.83;3.15;;;;;;;17.29;34.55;102654.31;5068730;28;20052;-68
2022/04/17 09:57:43;;;;;;;4.70;3.60;;;;;;;17.63;34.25;102645.50;5063664;28;20063;-65
2022/04/17 10:00:14;;;;;;;4.40;3.45;;;;;;;17.88;34.20;102642.69;5068690;28;20033;-66
2022/04/17 10:02:42;;;;;;;6.18;3.42;;;;;;;18.15;32.87;102644.38;5067902;28;20032;-71
2022/04/17 10:05:09;;;;;;;4.47;2.92;;;;;;;18.09;31.58;102632.84;5063605;28;20068;-75
2022/04/17 10:07:38;;;;;;;5.53;2.88;;;;;;;18.05;33.25;102622.16;5058310;28;20032;-71
2022/04/17 10:10:05;;;;;;;5.88;3.50;;;;;;;18.12;32.48;102628.94;5068351;28;20138;-65
2022/04/17 10:12:34;;;;;;;5.22;2.88;;;;;;;18.15;34.05;102623.22;5061165;28;20025;-65
2022/04/17 10:15:04;;;;;;;5.82;3.58;;;;;;;18.36;33.16;102615.16;5060370;28;20036;-67
2022/04/17 10:17:30;;;;;;;4.75;3.20;;;;;;;18.60;32.68;102613.28;5070958;28;20072;-65
2022/04/17 10:20:04;;;;;;;5.68;2.97;;;;;;;18.51;29.60;102604.81;5070713;28;20067;-67
2022/04/17 10:22:33;;;;;;;4.10;3.28;;;;;;;18.06;30.92;102610.16;5066749;28;20044;-65
2022/04/17 10:25:02;;;;;;;4.65;3.33;;;;;;;17.65;29.59;102603.09;5064898;28;20060;-66
2022/04/17 10:27:32;;;;;;;4.13;3.72;;;;;;;17.55;31.63;102593.75;5060398;28;20037;-66
2022/04/17 10:30:11;;;;;;;4.68;3.00;;;;;;;18.00;34.25;102589.47;5065634;28;20143;-76
2022/04/17 10:32:51;;;;;;;5.07;2.53;;;;;;;18.56;33.25;102589.72;5065311;28;20039;-65
2022/04/17 10:35:35;;;;;;;4.00;2.45;;;;;;;18.81;31.36;102580.38;5067716;28;20056;-67
2022/04/17 10:38:30;;;;;;;3.17;2.83;;;;;;;18.93;30.69;102586.81;5071407;28;20369;-65
2022/04/17 10:40:59;;;;;;;5.25;2.97;;;;;;;19.21;30.00;102571.66;5059256;28;20040;-65
2022/04/17 10:43:42;;;;;;;3.72;2.40;;;;;;;19.32;29.21;102570.78;5056173;28;20101;-65
2022/04/17 10:46:08;;;;;;;7.30;2.60;;;;;;;19.20;29.07;102578.16;5069754;28;20071;-66
2022/04/17 10:48:42;;;;;;;4.00;2.58;;;;;;;19.02;29.64;102560.34;5067164;28;20064;-67
2022/04/17 10:51:13;;;;;;;6.15;2.88;;;;;;;18.97;28.64;102557.97;5070164;28;20475;-71
2022/04/17 10:53:49;;;;;;;3.38;2.33;;;;;;;18.91;28.28;102557.59;5060224;28;20087;-65
2022/04/17 10:56:16;;;;;;;3.78;2.60;;;;;;;19.34;30.92;102553.06;5061717;28;20082;-67
2022/04/17 10:58:49;;;;;;;2.75;2.40;;;;;;;19.64;30.21;102551.59;5055308;28;20029;-67
2022/04/17 11:01:15;;;;;;;5.95;3.20;;;;;;;19.44;26.95;102539.38;5069898;28;20036;-71
2022/04/17 11:03:52;;;;;;;6.00;2.45;;;;;;;19.20;28.74;102545.06;5069981;28;20036;-66
2022/04/17 11:06:31;;;;;;;5.03;2.70;;;;;;;19.37;30.76;102544.56;5067779;28;20035;-73
2022/04/17 11:09:08;;;;;;;4.65;2.90;;;;;;;19.72;29.54;102543.50;5065238;28;20079;-66
2022/04/17 11:11:35;;;;;;;3.13;2.50;;;;;;;19.79;26.93;102533.72;5064344;28;20063;-65
2022/04/17 11:14:13;;;;;;;4.20;2.20;;;;;;;19.65;29.43;102531.25;5057194;28;20065;-66
2022/04/17 11:16:39;;;;;;;4.78;2.20;;;;;;;20.03;28.74;102527.09;5069486;28;20040;-72
2022/04/17 11:19:06;;;;;;;6.68;2.42;;;;;;;20.02;27.63;102520.69;5067998;28;20036;-66
2022/04/17 11:21:41;;;;;;;2.95;2.50;;;;;;;20.20;26.72;102520.13;5070027;28;20032;-70
2022/04/17 11:24:07;;;;;;;6.47;2.17;;;;;;;20.53;28.22;102519.09;5052978;28;20033;-66
2022/04/17 11:26:50;;;;;;;4.22;2.40;;;;;;;21.14;30.04;102520.00;5060903;28;20032;-70
2022/04/17 11:29:16;;;;;;;4.35;2.45;;;;;;;20.97;24.52;102508.72;5059978;28;20483;-66
2022/04/17 11:31:41;;;;;;;2.83;2.28;;;;;;;20.90;26.02;102502.88;5066440;28;20036;-66
2022/04/17 11:34:06;;;;;;;6.82;2.67;;;;;;;21.02;28.88;102501.72;5068947;28;20037;-72
2022/04/17 11:36:32;;;;;;;4.13;2.03;;;;;;;21.28;28.01;102496.59;5069130;28;20037;-71
2022/04/17 11:38:58;;;;;;;3.92;2.28;;;;;;;21.29;25.07;102495.56;5065079;28;20443;-67
2022/04/17 11:41:24;;;;;;;6.53;2.42;;;;;;;21.27;25.20;102493.97;5062348;28;20045;-71